createdAt,value
2023-11-21T00:02:40.717Z,98930.78
2023-11-21T00:05:42.327Z,98932.35
2023-11-21T00:08:43.758Z,98937.77
2023-11-21T00:11:45.788Z,98935.84
2023-11-21T00:14:47.886Z,98943.64
2023-11-21T00:17:50.331Z,98941.96
2023-11-21T00:20:51.832Z,98944.45
2023-11-21T00:23:53.478Z,98945.77
2023-11-21T00:26:54.869Z,98941.77
2023-11-21T00:29:56.453Z,98943.11
2023-11-21T00:32:58.067Z,98942.63
2023-11-21T00:35:59.748Z,98946.73
2023-11-21T00:39:03.124Z,98948.73
2023-11-21T00:42:05.579Z,98951.10
2023-11-21T00:45:07.943Z,98959.58
2023-11-21T00:48:09.484Z,98958.72
2023-11-21T00:51:11.117Z,98954.75
2023-11-21T00:54:12.758Z,98954.04
2023-11-21T00:57:14.668Z,98956.69
2023-11-21T01:00:18.495Z,98955.27
2023-11-21T01:03:20.712Z,98957.45
2023-11-21T01:06:22.504Z,98952.89
2023-11-21T01:09:24.660Z,98955.48
2023-11-21T01:12:26.586Z,98961.33
2023-11-21T01:15:28.913Z,98958.52
2023-11-21T01:18:30.391Z,98961.98
2023-11-21T01:21:32.660Z,98965.66
2023-11-21T01:24:34.085Z,98964.84
2023-11-21T01:27:35.836Z,98966.59
2023-11-21T01:30:38.140Z,98966.43
2023-11-21T01:33:39.553Z,98965.49
2023-11-21T01:36:40.945Z,98966.70
2023-11-21T01:39:42.404Z,98968.95
2023-11-21T01:42:44.179Z,98969.53
2023-11-21T01:45:49.167Z,98967.76
2023-11-21T01:48:51.123Z,98979.33
2023-11-21T01:51:52.762Z,98976.19
2023-11-21T01:54:54.684Z,98973.28
2023-11-21T01:57:59.891Z,98974.71
2023-11-21T02:01:01.442Z,98980.53
2023-11-21T02:04:03.780Z,98984.90
2023-11-21T02:07:08.212Z,98985.67
2023-11-21T02:10:10.045Z,98990.05
2023-11-21T02:13:11.913Z,98999.70
2023-11-21T02:16:14.259Z,98995.55
2023-11-21T02:19:25.982Z,98993.63
2023-11-21T02:22:36.541Z,98997.71
2023-11-21T02:25:38.004Z,98994.86
2023-11-21T02:28:39.541Z,98999.00
2023-11-21T02:31:48.504Z,98999.09
2023-11-21T02:34:50.676Z,98993.17
2023-11-21T02:37:53.241Z,98991.14
2023-11-21T02:40:55.023Z,98991.92
2023-11-21T02:43:56.515Z,98993.98
2023-11-21T02:46:58.558Z,99001.11
2023-11-21T02:50:00.302Z,98996.77
2023-11-21T02:53:02.176Z,98997.52
2023-11-21T02:56:03.827Z,98993.73
2023-11-21T02:59:05.617Z,98991.08
2023-11-21T03:02:09.433Z,98992.02
2023-11-21T03:05:11.507Z,98994.39
2023-11-21T03:08:12.901Z,98997.11
2023-11-21T03:11:15.065Z,98994.06
2023-11-21T03:14:16.714Z,98993.58
2023-11-21T03:17:18.154Z,98993.58
2023-11-21T03:20:20.117Z,98994.33
2023-11-21T03:23:21.616Z,99000.60
2023-11-21T03:26:23.233Z,98999.89
2023-11-21T03:29:24.677Z,99005.94
2023-11-21T03:32:26.208Z,99008.77
2023-11-21T03:35:28.534Z,99012.29
2023-11-21T03:38:30.158Z,99011.83
2023-11-21T03:41:31.531Z,99015.35
2023-11-21T03:44:33.058Z,99015.80
2023-11-21T03:47:34.969Z,99011.58
2023-11-21T03:50:36.457Z,99011.55
2023-11-21T03:53:37.856Z,99010.98
2023-11-21T03:56:39.261Z,99012.04
2023-11-21T03:59:42.082Z,99012.03
2023-11-21T04:02:43.870Z,99010.22
2023-11-21T04:05:46.749Z,99014.20
2023-11-21T04:08:48.216Z,99013.45
2023-11-21T04:11:49.652Z,99015.04
2023-11-21T04:14:52.166Z,99021.08
2023-11-21T04:17:54.637Z,99016.27
2023-11-21T04:20:56.066Z,99019.95
2023-11-21T04:23:57.442Z,99018.95
2023-11-21T04:26:59.064Z,99023.08
2023-11-21T04:30:00.526Z,99027.27
2023-11-21T04:33:03.592Z,99034.88
2023-11-21T04:36:05.687Z,99031.98
2023-11-21T04:39:07.702Z,99036.05
2023-11-21T04:42:09.137Z,99033.49
2023-11-21T04:45:12.151Z,99039.98
2023-11-21T04:48:13.793Z,99045.53
2023-11-21T04:51:15.388Z,99047.24
2023-11-21T04:54:17.013Z,99048.78
2023-11-21T04:57:18.752Z,99051.61
2023-11-21T05:00:21.812Z,99052.80
2023-11-21T05:03:24.612Z,99056.85
2023-11-21T05:06:26.353Z,99057.80
2023-11-21T05:09:29.010Z,99062.20
2023-11-21T05:12:38.419Z,99059.77
2023-11-21T05:15:40.497Z,99067.77
2023-11-21T05:18:42.134Z,99074.05
2023-11-21T05:21:43.727Z,99079.83
2023-11-21T05:24:45.303Z,99083.29
2023-11-21T05:27:47.796Z,99083.56
2023-11-21T05:30:51.963Z,99088.83
2023-11-21T05:33:56.390Z,99089.41
2023-11-21T05:36:58.981Z,99092.02
2023-11-21T05:40:05.485Z,99094.39
2023-11-21T05:43:07.741Z,99098.06
2023-11-21T05:46:09.828Z,99092.59
2023-11-21T05:49:11.544Z,99097.35
2023-11-21T05:52:13.094Z,99099.98
2023-11-21T05:55:14.907Z,99107.45
2023-11-21T05:58:16.579Z,99113.50
2023-11-21T06:01:18.101Z,99122.20
2023-11-21T06:04:19.788Z,99121.03
2023-11-21T06:07:21.522Z,99124.67
2023-11-21T06:10:24.541Z,99129.09
2023-11-21T06:13:26.793Z,99126.69
2023-11-21T06:16:28.514Z,99133.56
2023-11-21T06:19:30.011Z,99140.06
2023-11-21T06:22:31.794Z,99151.97
2023-11-21T06:25:37.176Z,99152.09
2023-11-21T06:28:38.766Z,99153.77
2023-11-21T06:31:41.528Z,99156.69
2023-11-21T06:34:43.107Z,99160.95
2023-11-21T06:37:48.461Z,99171.17
2023-11-21T06:40:49.961Z,99177.77
2023-11-21T06:43:51.432Z,99182.70
2023-11-21T06:46:53.119Z,99189.98
2023-11-21T06:49:54.688Z,99195.67
2023-11-21T06:52:56.287Z,99201.42
2023-11-21T06:55:57.760Z,99209.73
2023-11-21T06:58:59.266Z,99217.02
2023-11-21T07:02:01.070Z,99214.25
2023-11-21T07:05:02.967Z,99222.44
2023-11-21T07:08:05.103Z,99223.03
2023-11-21T07:11:06.623Z,99227.23
2023-11-21T07:14:09.355Z,99233.06
2023-11-21T07:17:15.156Z,99230.87
2023-11-21T07:20:17.815Z,99238.26
2023-11-21T07:23:19.245Z,99247.49
2023-11-21T07:26:21.137Z,99246.35
2023-11-21T07:29:26.212Z,99249.16
2023-11-21T07:32:27.637Z,99252.93
2023-11-21T07:35:29.096Z,99258.69
2023-11-21T07:38:30.556Z,99264.08
2023-11-21T07:41:33.015Z,99270.88
2023-11-21T07:44:34.404Z,99273.16
2023-11-21T07:47:36.360Z,99277.40
2023-11-21T07:50:38.419Z,99278.23
2023-11-21T07:53:40.053Z,99281.14
2023-11-21T07:56:41.427Z,99283.95
2023-11-21T07:59:42.866Z,99287.89
2023-11-21T08:02:46.571Z,99291.80
2023-11-21T08:05:48.183Z,99292.46
2023-11-21T08:08:49.729Z,99297.42
2023-11-21T08:11:52.587Z,99303.05
2023-11-21T08:14:54.168Z,99309.80
2023-11-21T08:17:55.609Z,99312.61
2023-11-21T08:20:57.830Z,99315.58
2023-11-21T08:23:59.271Z,99318.55
2023-11-21T08:27:00.663Z,99323.47
2023-11-21T08:30:04.103Z,99329.66
2023-11-21T08:33:05.644Z,99329.99
2023-11-21T08:36:09.462Z,99336.92
2023-11-21T08:39:10.905Z,99343.63
2023-11-21T08:42:12.456Z,99347.30
2023-11-21T08:45:15.368Z,99353.09
2023-11-21T08:48:16.857Z,99358.17
2023-11-21T08:51:18.583Z,99365.80
2023-11-21T08:54:20.705Z,99368.97
2023-11-21T08:57:26.397Z,99376.50
2023-11-21T09:00:27.928Z,99377.33
2023-11-21T09:03:29.369Z,99379.91
2023-11-21T09:06:30.911Z,99380.88
2023-11-21T09:09:32.345Z,99381.00
2023-11-21T09:12:35.641Z,99382.13
2023-11-21T09:15:37.058Z,99390.83
2023-11-21T09:18:38.476Z,99397.34
2023-11-21T09:21:40.000Z,99395.96
2023-11-21T09:24:41.682Z,99394.84
2023-11-21T09:27:43.223Z,99399.97
2023-11-21T09:30:44.702Z,99401.94
2023-11-21T09:33:48.807Z,99403.48
2023-11-21T09:36:50.388Z,99411.90
2023-11-21T09:39:51.792Z,99414.33
2023-11-21T09:42:57.247Z,99416.66
2023-11-21T09:46:02.520Z,99416.89
2023-11-21T09:49:06.458Z,99419.92
2023-11-21T09:52:16.143Z,99426.10
2023-11-21T09:55:20.730Z,99426.04
2023-11-21T09:58:25.319Z,99430.81
2023-11-21T10:01:28.932Z,99437.10
2023-11-21T10:04:31.796Z,99442.19
2023-11-21T10:07:35.139Z,99445.69
2023-11-21T10:10:48.652Z,99451.20
2023-11-21T10:13:54.571Z,99451.08
2023-11-21T10:16:58.143Z,99450.59
2023-11-21T10:20:00.361Z,99454.23
2023-11-21T10:23:03.135Z,99452.98
2023-11-21T10:26:11.345Z,99451.38
2023-11-21T10:29:24.501Z,99453.14
2023-11-21T10:32:32.892Z,99454.61
2023-11-21T10:35:44.118Z,99450.73
2023-11-21T10:38:50.810Z,99457.89
2023-11-21T10:41:53.472Z,99465.19
2023-11-21T10:44:55.889Z,99468.41
2023-11-21T10:47:57.408Z,99465.36
2023-11-21T10:50:59.404Z,99470.81
2023-11-21T10:54:00.912Z,99480.29
2023-11-21T10:57:04.886Z,99486.11
2023-11-21T11:00:07.313Z,99489.81
2023-11-21T11:03:16.009Z,99488.30
2023-11-21T11:06:18.899Z,99488.98
2023-11-21T11:09:21.176Z,99495.22
2023-11-21T11:12:25.670Z,99503.64
2023-11-21T11:15:28.576Z,99507.59
2023-11-21T11:18:30.874Z,99512.61
2023-11-21T11:22:05.027Z,99516.10
2023-11-21T11:25:35.040Z,99519.11
2023-11-21T11:28:47.644Z,99517.29
2023-11-21T11:32:00.924Z,99518.63
2023-11-21T11:35:17.343Z,99523.52
2023-11-21T11:38:19.372Z,99528.83
2023-11-21T11:41:30.362Z,99530.38
2023-11-21T11:44:47.704Z,99530.02
2023-11-21T11:47:57.907Z,99530.41
2023-11-21T11:51:25.850Z,99537.05
2023-11-21T11:54:37.206Z,99546.42
2023-11-21T11:57:43.102Z,99546.75
2023-11-21T12:00:46.888Z,99544.52
2023-11-21T12:04:34.679Z,99545.98
2023-11-21T12:08:00.464Z,99546.05
2023-11-21T12:11:02.736Z,99547.96
2023-11-21T12:14:06.178Z,99553.88
2023-11-21T12:17:07.739Z,99556.91
2023-11-21T12:20:18.926Z,99560.79
2023-11-21T12:23:21.552Z,99566.94
2023-11-21T12:26:25.165Z,99572.00
2023-11-21T12:29:26.620Z,99574.52
2023-11-21T12:32:28.175Z,99582.90
2023-11-21T12:35:34.487Z,99585.11
2023-11-21T12:38:36.084Z,99587.02
2023-11-21T12:41:37.469Z,99595.68
2023-11-21T12:44:41.615Z,99596.46
2023-11-21T12:47:44.485Z,99599.09
2023-11-21T12:50:49.632Z,99599.21
2023-11-21T12:53:51.558Z,99601.63
2023-11-21T12:56:52.969Z,99607.53
2023-11-21T12:59:58.763Z,99614.38
2023-11-21T13:03:00.769Z,99617.40
2023-11-21T13:06:03.045Z,99625.63
2023-11-21T13:09:05.613Z,99630.99
2023-11-21T13:12:09.224Z,99634.91
2023-11-21T13:15:11.393Z,99640.85
2023-11-21T13:18:13.644Z,99640.20
2023-11-21T13:21:16.101Z,99639.33
2023-11-21T13:24:18.710Z,99651.95
2023-11-21T13:27:20.207Z,99652.23
2023-11-21T13:30:27.276Z,99657.30
2023-11-21T13:33:29.172Z,99661.69
2023-11-21T13:36:33.880Z,99664.09
2023-11-21T13:39:36.231Z,99673.44
2023-11-21T13:42:37.813Z,99677.77
2023-11-21T13:45:45.905Z,99684.58
2023-11-21T13:48:51.301Z,99693.39
2023-11-21T13:51:55.612Z,99698.67
2023-11-21T13:54:57.083Z,99707.33
2023-11-21T13:57:59.686Z,99714.05
2023-11-21T14:01:02.405Z,99716.91
2023-11-21T14:04:16.470Z,99719.88
2023-11-21T14:07:23.288Z,99723.83
2023-11-21T14:10:25.137Z,99732.52
2023-11-21T14:13:29.227Z,99734.20
2023-11-21T14:16:30.851Z,99747.24
2023-11-21T14:19:33.158Z,99746.12
2023-11-21T14:22:35.017Z,99746.09
2023-11-21T14:25:37.939Z,99743.59
2023-11-21T14:28:39.951Z,99747.88
2023-11-21T14:31:42.227Z,99751.67
2023-11-21T14:34:47.591Z,99756.89
2023-11-21T14:37:49.076Z,99762.02
2023-11-21T14:40:50.752Z,99762.67
2023-11-21T14:43:52.891Z,99764.36
2023-11-21T14:46:57.106Z,99772.64
2023-11-21T14:50:19.615Z,99773.89
2023-11-21T14:53:41.082Z,99779.06
2023-11-21T14:56:45.453Z,99782.35
2023-11-21T14:59:58.508Z,99784.50
2023-11-21T15:03:00.965Z,99787.64
2023-11-21T15:06:24.843Z,99798.48
2023-11-21T15:09:32.392Z,99808.09
2023-11-21T15:12:34.695Z,99812.67
2023-11-21T15:15:37.735Z,99820.91
2023-11-21T15:18:39.514Z,99820.08
2023-11-21T15:21:40.977Z,99823.21
2023-11-21T15:24:45.336Z,99824.88
2023-11-21T15:27:49.834Z,99829.70
2023-11-21T15:30:52.609Z,99830.10
2023-11-21T15:33:54.411Z,99832.09
2023-11-21T15:36:56.104Z,99836.40
2023-11-21T15:39:58.382Z,99836.65
2023-11-21T15:43:00.216Z,99844.92
2023-11-21T15:46:07.199Z,99847.55
2023-11-21T15:49:13.208Z,99851.52
2023-11-21T15:52:14.678Z,99855.27
2023-11-21T15:55:17.824Z,99857.70
2023-11-21T15:58:19.241Z,99868.64
2023-11-21T16:01:22.498Z,99873.11
2023-11-21T16:04:27.254Z,99883.16
2023-11-21T16:07:28.844Z,99886.90
2023-11-21T16:10:32.865Z,99892.70
2023-11-21T16:13:41.620Z,99891.88
2023-11-21T16:16:43.061Z,99896.88
2023-11-21T16:19:44.781Z,99903.64
2023-11-21T16:22:46.430Z,99905.46
2023-11-21T16:25:55.413Z,99910.62
2023-11-21T16:28:57.070Z,99929.24
2023-11-21T16:31:58.920Z,99940.06
2023-11-21T16:35:01.868Z,99945.63
2023-11-21T16:38:05.977Z,99945.63
2023-11-21T16:41:10.136Z,99941.16
2023-11-21T16:44:16.266Z,99938.14
2023-11-21T16:47:25.747Z,99948.00
2023-11-21T16:50:27.195Z,99955.95
2023-11-21T16:53:28.702Z,99959.95
2023-11-21T16:56:30.300Z,99966.05
2023-11-21T16:59:32.012Z,99967.10
2023-11-21T17:02:37.076Z,99967.27
2023-11-21T17:05:38.722Z,99969.55
2023-11-21T17:08:40.296Z,99970.02
2023-11-21T17:11:41.799Z,99973.69
2023-11-21T17:14:44.007Z,99977.67
2023-11-21T17:17:45.773Z,99982.92
2023-11-21T17:20:47.285Z,99986.45
2023-11-21T17:23:49.186Z,99991.27
2023-11-21T17:26:50.577Z,99990.46
2023-11-21T17:29:53.662Z,99995.48
2023-11-21T17:32:57.879Z,100005.20
2023-11-21T17:35:59.589Z,100005.79
2023-11-21T17:39:01.247Z,100014.36
2023-11-21T17:42:03.129Z,100019.30
2023-11-21T17:45:05.436Z,100022.85
2023-11-21T17:48:07.802Z,100027.27
2023-11-21T17:51:09.507Z,100031.79
2023-11-21T17:54:11.045Z,100039.89
2023-11-21T17:57:12.706Z,100037.95
2023-11-21T18:00:14.424Z,100040.88
2023-11-21T18:03:29.858Z,100050.79
2023-11-21T18:06:33.695Z,100056.23
2023-11-21T18:09:35.230Z,100059.02
2023-11-21T18:12:45.727Z,100052.54
2023-11-21T18:16:02.507Z,100057.52
2023-11-21T18:19:04.131Z,100058.13
2023-11-21T18:22:06.464Z,100069.43
2023-11-21T18:25:08.406Z,100068.30
2023-11-21T18:28:10.330Z,100070.65
2023-11-21T18:31:12.399Z,100075.71
2023-11-21T18:34:13.915Z,100077.91
2023-11-21T18:37:15.338Z,100082.10
2023-11-21T18:40:17.028Z,100086.44
2023-11-21T18:43:18.808Z,100092.89
2023-11-21T18:46:20.707Z,100091.46
2023-11-21T18:49:22.190Z,100099.27
2023-11-21T18:52:27.963Z,100101.66
2023-11-21T18:55:30.105Z,100107.38
2023-11-21T18:58:35.267Z,100108.85
2023-11-21T19:01:37.222Z,100120.08
2023-11-21T19:04:38.829Z,100121.23
2023-11-21T19:07:40.541Z,100127.19
2023-11-21T19:10:42.422Z,100135.89
2023-11-21T19:13:44.306Z,100146.13
2023-11-21T19:16:46.880Z,100145.62
2023-11-21T19:19:48.642Z,100153.63
2023-11-21T19:22:50.369Z,100156.48
2023-11-21T19:25:51.822Z,100163.35
2023-11-21T19:28:53.289Z,100172.36
2023-11-21T19:31:55.447Z,100182.82
2023-11-21T19:34:57.194Z,100180.48
2023-11-21T19:37:58.817Z,100190.55
2023-11-21T19:41:00.394Z,100197.63
2023-11-21T19:44:02.290Z,100202.55
2023-11-21T19:47:04.839Z,100206.48
2023-11-21T19:50:10.633Z,100211.36
2023-11-21T19:53:12.407Z,100218.70
2023-11-21T19:56:14.435Z,100227.88
2023-11-21T19:59:17.035Z,100226.33
2023-11-21T20:02:18.697Z,100232.62
2023-11-21T20:05:20.631Z,100234.75
2023-11-21T20:08:22.129Z,100240.54
2023-11-21T20:11:24.236Z,100247.19
2023-11-21T20:14:26.995Z,100246.11
2023-11-21T20:17:32.417Z,100248.17
2023-11-21T20:20:34.063Z,100247.62
2023-11-21T20:23:37.173Z,100253.20
2023-11-21T20:26:42.100Z,100254.59
2023-11-21T20:29:44.964Z,100257.55
2023-11-21T20:32:46.724Z,100262.46
2023-11-21T20:35:49.822Z,100269.81
2023-11-21T20:38:52.558Z,100271.41
2023-11-21T20:41:54.190Z,100270.17
2023-11-21T20:44:56.754Z,100269.96
2023-11-21T20:47:59.705Z,100269.30
2023-11-21T20:51:01.776Z,100270.80
2023-11-21T20:54:05.083Z,100274.77
2023-11-21T20:57:10.442Z,100278.23
2023-11-21T21:00:15.205Z,100282.23
2023-11-21T21:03:16.769Z,100284.69
2023-11-21T21:06:19.687Z,100288.20
2023-11-21T21:09:22.274Z,100293.56
2023-11-21T21:12:25.193Z,100301.13
2023-11-21T21:15:26.960Z,100304.81
2023-11-21T21:18:29.086Z,100312.62
2023-11-21T21:21:32.424Z,100314.35
2023-11-21T21:24:34.032Z,100311.91
2023-11-21T21:27:37.037Z,100314.50
2023-11-21T21:30:40.336Z,100315.83
2023-11-21T21:33:44.168Z,100318.77
2023-11-21T21:36:49.234Z,100323.00
2023-11-21T21:39:50.765Z,100333.13
2023-11-21T21:42:53.974Z,100339.05
2023-11-21T21:45:55.354Z,100341.70
2023-11-21T21:48:56.919Z,100349.36
2023-11-21T21:52:02.756Z,100347.27
2023-11-21T21:55:05.188Z,100347.60
2023-11-21T21:58:08.034Z,100350.91
2023-11-21T22:01:09.870Z,100354.23
2023-11-21T22:04:12.110Z,100359.98
2023-11-21T22:07:13.794Z,100366.20
2023-11-21T22:10:15.355Z,100371.58
2023-11-21T22:13:17.012Z,100374.38
2023-11-21T22:16:18.661Z,100381.66
2023-11-21T22:19:20.351Z,100385.84
2023-11-21T22:22:22.844Z,100386.06
2023-11-21T22:25:24.501Z,100381.77
2023-11-21T22:28:25.985Z,100382.25
2023-11-21T22:31:27.572Z,100388.81
2023-11-21T22:34:29.113Z,100384.50
2023-11-21T22:37:30.669Z,100385.27
2023-11-21T22:40:32.147Z,100396.52
2023-11-21T22:43:34.324Z,100401.67
2023-11-21T22:46:45.050Z,100408.30
2023-11-21T22:49:46.588Z,100414.77
2023-11-21T22:52:50.055Z,100416.85
2023-11-21T22:55:54.133Z,100418.44
2023-11-21T22:58:56.755Z,100421.77
2023-11-21T23:01:58.440Z,100426.27
2023-11-21T23:05:00.002Z,100431.33
2023-11-21T23:08:02.608Z,100428.73
2023-11-21T23:11:05.315Z,100430.80
2023-11-21T23:14:07.015Z,100435.88
2023-11-21T23:17:09.008Z,100430.96
2023-11-21T23:20:11.288Z,100440.66
2023-11-21T23:23:13.926Z,100431.30
2023-11-21T23:26:18.486Z,100437.91
2023-11-21T23:29:20.174Z,100436.19
2023-11-21T23:32:24.992Z,100437.23
2023-11-21T23:35:26.697Z,100449.10
2023-11-21T23:38:28.261Z,100457.13
2023-11-21T23:41:29.988Z,100462.67
2023-11-21T23:44:31.903Z,100463.86
2023-11-21T23:47:33.833Z,100470.30
2023-11-21T23:50:35.602Z,100479.00
2023-11-21T23:53:37.294Z,100478.11
2023-11-21T23:56:38.870Z,100480.17
2023-11-21T23:59:40.467Z,100474.44
